Time;durP1;ratioP1;P1;durP2;ratioP2;P2;SDS_P1;SDS_P2;PMS_P1;PMS_P2;Temp;Humidity;BMP_temperature;BMP_pressure;BME280_temperature;BME280_humidity;BME280_pressure;Samples;Min_cycle;Max_cycle;Signal;HPM_P1;HPM_P2
2024/03/10 00:00:20;;;;;;;6.03;3.70;;;28.00;99.90;;;;;;5057401;28;20028;-72
2024/03/10 00:02:53;;;;;;;6.13;2.33;;;28.20;99.90;;;;;;5066595;28;20035;-71
2024/03/10 00:05:21;;;;;;;7.82;1.90;;;28.60;99.90;;;;;;5073379;28;20040;-70
2024/03/10 00:07:48;;;;;;;6.32;2.28;;;28.80;99.90;;;;;;5068284;28;20035;-74
2024/03/10 00:10:16;;;;;;;5.45;2.25;;;28.70;99.90;;;;;;5066901;28;20074;-67
2024/03/10 00:12:49;;;;;;;3.47;1.98;;;28.80;99.90;;;;;;5066786;28;20028;-67
2024/03/10 00:15:17;;;;;;;6.13;3.28;;;29.10;99.90;;;;;;5062423;28;20033;-68
2024/03/10 00:17:44;;;;;;;5.45;2.58;;;29.00;99.90;;;;;;5062342;28;20028;-68
2024/03/10 00:20:13;;;;;;;4.38;2.25;;;29.10;99.90;;;;;;5058783;28;20029;-76
2024/03/10 00:22:41;;;;;;;5.95;2.00;;;29.20;99.90;;;;;;5065046;28;20032;-75
2024/03/10 00:25:09;;;;;;;6.70;3.95;;;29.00;99.90;;;;;;5065371;28;20067;-67
2024/03/10 00:27:36;;;;;;;8.13;3.67;;;29.10;99.90;;;;;;5058753;28;20043;-74
2024/03/10 00:30:09;;;;;;;4.90;3.28;;;29.10;99.90;;;;;;5058039;28;20427;-67
2024/03/10 00:32:37;;;;;;;10.82;6.13;;;29.10;99.90;;;;;;5058501;28;20027;-71
2024/03/10 00:35:08;;;;;;;7.20;2.58;;;29.60;99.90;;;;;;5064725;28;20044;-69
2024/03/10 00:37:36;;;;;;;5.55;2.13;;;30.00;99.90;;;;;;5068338;28;20233;-66
2024/03/10 00:40:07;;;;;;;4.05;1.88;;;30.20;99.90;;;;;;5068182;28;20033;-73
2024/03/10 00:42:35;;;;;;;5.45;2.25;;;30.80;99.90;;;;;;5064314;28;20037;-73
2024/03/10 00:45:02;;;;;;;8.68;2.50;;;31.20;99.90;;;;;;5067032;28;20028;-69
2024/03/10 00:47:29;;;;;;;6.18;2.90;;;31.20;99.90;;;;;;5064104;28;20024;-75
2024/03/10 00:49:56;;;;;;;4.50;3.13;;;31.30;99.90;;;;;;5068056;28;20399;-72
2024/03/10 00:52:23;;;;;;;10.85;3.97;;;31.70;99.90;;;;;;5069294;28;20203;-65
2024/03/10 00:54:50;;;;;;;5.68;2.00;;;31.70;99.90;;;;;;5067290;28;20043;-73
2024/03/10 00:57:17;;;;;;;5.57;2.22;;;31.90;99.90;;;;;;5067211;28;20546;-69
2024/03/10 00:59:44;;;;;;;5.28;2.47;;;31.80;99.90;;;;;;5051540;28;20039;-65
2024/03/10 01:02:13;;;;;;;4.28;2.20;;;31.60;99.90;;;;;;5063059;28;20492;-68
2024/03/10 01:04:40;;;;;;;5.63;1.80;;;31.40;99.90;;;;;;5065293;28;20083;-71
2024/03/10 01:07:07;;;;;;;6.82;3.17;;;31.70;99.90;;;;;;5070229;28;20028;-73
2024/03/10 01:09:34;;;;;;;6.43;2.40;;;31.70;99.90;;;;;;5070236;28;20028;-75
2024/03/10 01:12:01;;;;;;;4.43;2.25;;;32.20;99.80;;;;;;5068993;28;20020;-69
2024/03/10 01:14:28;;;;;;;4.60;1.80;;;32.60;99.10;;;;;;5073257;28;20047;-70
2024/03/10 01:16:55;;;;;;;5.57;2.00;;;32.80;99.00;;;;;;5074843;28;20024;-66
2024/03/10 01:19:22;;;;;;;4.15;1.77;;;32.70;98.40;;;;;;5068560;28;20077;-71
2024/03/10 01:21:49;;;;;;;5.07;1.95;;;32.10;99.30;;;;;;5071574;28;20020;-65
2024/03/10 01:24:16;;;;;;;5.22;1.73;;;32.50;98.70;;;;;;5060352;28;20822;-67
2024/03/10 01:26:44;;;;;;;4.95;2.00;;;33.00;98.90;;;;;;5062521;28;20031;-72
2024/03/10 01:29:11;;;;;;;5.10;2.10;;;33.10;98.00;;;;;;5065530;28;20036;-70
2024/03/10 01:31:38;;;;;;;4.53;1.40;;;32.90;98.50;;;;;;5072777;28;20024;-69
2024/03/10 01:34:05;;;;;;;3.58;1.60;;;33.10;97.60;;;;;;5059283;28;20136;-70
2024/03/10 01:36:32;;;;;;;3.78;1.63;;;33.30;97.90;;;;;;5060854;28;20387;-71
2024/03/10 01:38:59;;;;;;;5.45;1.80;;;33.60;97.50;;;;;;5059380;28;20059;-70
2024/03/10 01:41:26;;;;;;;6.55;2.38;;;33.50;96.70;;;;;;5061609;28;20032;-67
2024/03/10 01:43:53;;;;;;;3.05;1.90;;;33.50;96.30;;;;;;5056988;28;20782;-70
2024/03/10 01:46:21;;;;;;;3.15;1.42;;;33.40;95.90;;;;;;5057410;28;20017;-67
2024/03/10 01:48:49;;;;;;;3.72;1.70;;;33.30;95.30;;;;;;5057921;28;20020;-70
2024/03/10 01:51:16;;;;;;;6.50;1.55;;;32.70;95.90;;;;;;5057972;28;20154;-69
2024/03/10 01:53:44;;;;;;;4.53;1.90;;;32.20;96.60;;;;;;5055745;28;20046;-67
2024/03/10 01:56:11;;;;;;;4.30;1.63;;;32.10;96.80;;;;;;5056505;28;20294;-69
2024/03/10 01:58:40;;;;;;;5.55;1.38;;;32.60;96.90;;;;;;5039787;28;20103;-69
2024/03/10 02:01:09;;;;;;;2.95;1.27;;;33.10;96.60;;;;;;5055983;28;21109;-70
2024/03/10 02:03:36;;;;;;;5.15;1.20;;;33.60;96.10;;;;;;5057235;28;20031;-74
2024/03/10 02:06:09;;;;;;;4.45;1.42;;;34.20;96.00;;;;;;5057039;28;20036;-67
2024/03/10 02:08:40;;;;;;;3.78;1.15;;;34.30;95.60;;;;;;5056385;28;20089;-64
2024/03/10 02:11:10;;;;;;;4.70;1.33;;;34.20;95.20;;;;;;5057735;28;20375;-68
2024/03/10 02:13:38;;;;;;;2.53;1.00;;;33.90;94.60;;;;;;5039568;28;21191;-65
2024/03/10 02:16:06;;;;;;;3.13;1.00;;;34.00;94.00;;;;;;5040434;28;20025;-67
2024/03/10 02:18:33;;;;;;;3.72;1.10;;;33.90;94.20;;;;;;5059060;28;20035;-67
2024/03/10 02:21:03;;;;;;;3.20;1.10;;;33.80;93.80;;;;;;5038747;28;20039;-70
2024/03/10 02:23:42;;;;;;;6.55;2.50;;;34.10;93.60;;;;;;5056248;28;20036;-69
2024/03/10 02:26:10;;;;;;;2.92;0.80;;;34.40;92.80;;;;;;5056542;28;20033;-70
2024/03/10 02:28:57;;;;;;;4.68;1.58;;;34.70;91.70;;;;;;5055923;28;20031;-65
2024/03/10 02:48:16;;;;;;;3.22;0.93;;;35.10;91.90;;;;;;4991263;28;20131;-67
2024/03/10 02:50:44;;;;;;;3.45;1.33;;;35.30;92.00;;;;;;4994734;28;20046;-68
2024/03/10 02:53:11;;;;;;;2.63;0.95;;;35.00;91.20;;;;;;4994666;28;20034;-67
2024/03/10 02:55:38;;;;;;;4.10;1.75;;;34.80;91.50;;;;;;4994454;28;20098;-71
2024/03/10 02:58:06;;;;;;;3.70;1.77;;;35.20;92.20;;;;;;4992428;28;20022;-70
2024/03/10 03:00:36;;;;;;;4.13;1.75;;;35.50;91.70;;;;;;4994909;28;20113;-68
2024/03/10 03:03:13;;;;;;;2.17;0.77;;;35.60;91.60;;;;;;4994094;28;20128;-69
2024/03/10 03:05:40;;;;;;;5.70;1.25;;;35.90;91.40;;;;;;4993432;28;20026;-67
2024/03/10 03:08:07;;;;;;;5.60;1.30;;;36.10;91.60;;;;;;4993004;28;20034;-67
2024/03/10 03:10:34;;;;;;;6.13;1.40;;;36.20;91.00;;;;;;4995296;28;20040;-65
2024/03/10 03:13:01;;;;;;;4.72;1.65;;;36.10;90.60;;;;;;4995139;28;21164;-66
2024/03/10 03:15:29;;;;;;;2.33;1.10;;;35.40;91.00;;;;;;4994119;28;20049;-68
2024/03/10 03:17:57;;;;;;;2.80;0.85;;;35.10;91.10;;;;;;4996087;28;20340;-68
2024/03/10 03:20:25;;;;;;;5.78;1.45;;;35.10;91.40;;;;;;4993362;28;20483;-65
2024/03/10 03:22:53;;;;;;;3.20;1.08;;;35.40;91.40;;;;;;5041535;28;20046;-70
2024/03/10 03:25:20;;;;;;;3.20;1.40;;;35.50;91.10;;;;;;5061096;28;20047;-70
2024/03/10 03:27:51;;;;;;;3.88;1.80;;;35.50;91.40;;;;;;5061418;28;20090;-66
2024/03/10 03:30:18;;;;;;;3.47;1.30;;;35.90;91.50;;;;;;5059411;28;20154;-70
2024/03/10 03:32:45;;;;;;;2.70;0.82;;;35.80;91.50;;;;;;5057472;28;20029;-65
2024/03/10 03:35:15;;;;;;;2.13;0.90;;;35.70;90.70;;;;;;5058733;28;20145;-70
2024/03/10 03:37:43;;;;;;;3.30;1.45;;;35.60;91.20;;;;;;5062120;28;20028;-68
2024/03/10 03:40:12;;;;;;;2.95;1.67;;;35.50;91.30;;;;;;5060605;28;20500;-65
2024/03/10 03:42:40;;;;;;;3.00;1.20;;;35.60;90.70;;;;;;5060543;28;20096;-68
2024/03/10 03:45:08;;;;;;;3.67;1.67;;;34.60;91.30;;;;;;5059075;28;20414;-69
2024/03/10 03:47:36;;;;;;;8.85;7.68;;;33.90;91.70;;;;;;5060553;28;20061;-66
2024/03/10 03:50:04;;;;;;;4.25;1.80;;;34.10;92.70;;;;;;5058827;28;20483;-65
2024/03/10 03:52:31;;;;;;;2.60;1.30;;;34.40;91.80;;;;;;5060107;28;20475;-68
2024/03/10 03:54:58;;;;;;;3.17;1.13;;;34.90;91.70;;;;;;5060840;28;20055;-68
2024/03/10 03:57:25;;;;;;;3.85;1.45;;;35.60;91.90;;;;;;5059353;28;20566;-70
2024/03/10 03:59:52;;;;;;;3.35;1.40;;;35.90;91.30;;;;;;5061686;28;20067;-69
2024/03/10 04:02:25;;;;;;;2.35;0.90;;;36.20;91.80;;;;;;5059450;28;20090;-67
2024/03/10 04:04:55;;;;;;;3.05;1.05;;;36.40;90.70;;;;;;5059939;28;20483;-71
2024/03/10 04:07:22;;;;;;;3.72;1.35;;;36.40;91.20;;;;;;5060354;28;20285;-69
2024/03/10 04:09:49;;;;;;;3.90;1.27;;;36.50;91.30;;;;;;5058735;28;20525;-69
2024/03/10 04:12:16;;;;;;;2.30;0.70;;;36.20;90.80;;;;;;5058717;28;20033;-70
2024/03/10 04:14:43;;;;;;;1.73;0.70;;;36.40;91.10;;;;;;5058675;28;20032;-70
2024/03/10 04:17:10;;;;;;;3.40;1.02;;;36.50;91.30;;;;;;5040493;28;20033;-71
2024/03/10 04:19:37;;;;;;;2.08;0.98;;;35.90;90.40;;;;;;5057887;28;20078;-67
2024/03/10 04:22:09;;;;;;;4.53;1.00;;;34.80;91.60;;;;;;5058435;28;20028;-69
2024/03/10 04:24:43;;;;;;;2.47;0.82;;;35.20;91.20;;;;;;5059134;28;20066;-70
2024/03/10 04:27:10;;;;;;;4.07;1.20;;;35.60;91.20;;;;;;5062873;28;20113;-71
2024/03/10 04:29:37;;;;;;;5.22;1.13;;;36.00;91.30;;;;;;5064847;28;20386;-63
2024/03/10 04:32:07;;;;;;;4.15;1.05;;;36.50;91.30;;;;;;5060837;28;20081;-62
2024/03/10 04:34:34;;;;;;;4.47;1.10;;;36.30;91.20;;;;;;5069010;28;20535;-62
2024/03/10 04:37:02;;;;;;;2.38;0.70;;;36.50;90.20;;;;;;5071898;28;20031;-71
2024/03/10 04:39:29;;;;;;;2.10;1.08;;;36.80;90.60;;;;;;4717909;28;10000529;-64
2024/03/10 04:41:56;;;;;;;3.70;1.20;;;37.10;90.70;;;;;;5066694;28;20229;-74
2024/03/10 04:44:23;;;;;;;3.78;1.00;;;36.90;90.10;;;;;;5062469;28;20036;-65
2024/03/10 04:46:50;;;;;;;3.10;1.13;;;36.70;90.30;;;;;;5068502;28;20059;-65
2024/03/10 04:49:17;;;;;;;4.63;1.52;;;36.60;90.60;;;;;;5062845;28;20036;-73
2024/03/10 04:51:45;;;;;;;2.55;1.20;;;36.70;90.00;;;;;;5065340;28;20036;-65
2024/03/10 04:54:12;;;;;;;2.70;1.27;;;36.90;90.70;;;;;;5065302;28;20046;-68
2024/03/10 04:56:39;;;;;;;2.15;0.98;;;37.30;90.50;;;;;;5058964;28;20488;-63
2024/03/10 04:59:06;;;;;;;3.33;1.05;;;37.50;89.70;;;;;;5064501;28;20730;-74
2024/03/10 05:01:33;;;;;;;2.63;0.90;;;37.70;89.80;;;;;;5066408;28;20545;-64
2024/03/10 05:04:00;;;;;;;3.47;1.30;;;37.60;88.90;;;;;;5058930;28;20035;-62
2024/03/10 05:06:27;;;;;;;3.50;1.02;;;37.60;90.00;;;;;;5063552;28;20040;-62
2024/03/10 05:08:54;;;;;;;5.10;1.98;;;37.60;90.10;;;;;;5066218;28;20133;-71
2024/03/10 05:11:21;;;;;;;9.02;6.97;;;37.70;90.10;;;;;;5060055;28;20036;-65
2024/03/10 05:13:48;;;;;;;3.83;1.95;;;37.50;90.10;;;;;;5062095;28;20028;-68
2024/03/10 05:16:16;;;;;;;6.85;1.13;;;37.20;90.50;;;;;;5063439;28;20058;-67
2024/03/10 05:18:43;;;;;;;3.65;1.02;;;37.20;90.40;;;;;;5066052;28;20023;-64
2024/03/10 05:21:10;;;;;;;3.97;1.30;;;37.20;90.70;;;;;;5059933;28;20513;-67
2024/03/10 05:23:38;;;;;;;4.65;1.70;;;37.40;90.30;;;;;;5063635;28;20024;-71
2024/03/10 05:26:05;;;;;;;6.43;1.55;;;36.80;90.80;;;;;;5062888;28;20262;-63
2024/03/10 05:28:32;;;;;;;2.40;0.90;;;36.60;91.40;;;;;;5060982;28;21213;-65
2024/03/10 05:31:00;;;;;;;4.47;1.50;;;36.60;91.30;;;;;;5047987;28;20044;-68
2024/03/10 05:33:27;;;;;;;5.80;1.65;;;36.60;92.20;;;;;;5045949;28;20025;-65
2024/03/10 05:35:54;;;;;;;3.85;1.50;;;36.90;91.80;;;;;;5062314;28;20558;-65
2024/03/10 05:38:24;;;;;;;3.58;1.23;;;36.40;92.50;;;;;;5067289;28;20020;-62
2024/03/10 05:40:52;;;;;;;3.97;1.17;;;35.50;93.10;;;;;;5046032;28;20055;-70
2024/03/10 05:43:19;;;;;;;3.25;1.58;;;35.40;93.20;;;;;;5062835;28;20941;-64
2024/03/10 05:45:46;;;;;;;6.53;1.45;;;35.00;93.20;;;;;;5064695;28;20071;-63
2024/03/10 05:48:15;;;;;;;3.92;1.50;;;35.10;93.80;;;;;;5064006;28;20031;-65
